Time;durP1;ratioP1;P1;durP2;ratioP2;P2;SDS_P1;SDS_P2;PMS_P1;PMS_P2;Temp;Humidity;BMP_temperature;BMP_pressure;BME280_temperature;BME280_humidity;BME280_pressure;Samples;Min_cycle;Max_cycle;Signal;HPM_P1;HPM_P2
2022/10/16 00:01:27;;;;;;;37.65;5.07;;;11.30;99.90;;;;;;5052262;28;19920;-73
2022/10/16 00:03:56;;;;;;;36.83;4.70;;;11.20;99.90;;;;;;5053868;28;20037;-73
2022/10/16 00:06:24;;;;;;;30.77;4.35;;;11.20;99.90;;;;;;5054125;28;20052;-74
2022/10/16 00:08:52;;;;;;;34.90;4.65;;;11.30;99.90;;;;;;5054097;28;20056;-73
2022/10/16 00:11:22;;;;;;;35.30;5.10;;;11.30;99.90;;;;;;5056496;28;20472;-74
2022/10/16 00:13:54;;;;;;;33.30;4.82;;;11.30;99.90;;;;;;5056821;28;20049;-73
2022/10/16 00:16:21;;;;;;;36.33;4.13;;;11.30;99.90;;;;;;5018901;28;20045;-73
2022/10/16 00:18:49;;;;;;;36.08;4.57;;;11.50;99.90;;;;;;5020009;28;20060;-73
2022/10/16 00:21:20;;;;;;;43.50;5.00;;;11.60;99.90;;;;;;5019583;28;20045;-74
2022/10/16 00:24:08;;;;;;;36.30;4.60;;;11.80;99.90;;;;;;5037367;28;20050;-74
2022/10/16 00:26:37;;;;;;;35.78;4.38;;;11.90;99.90;;;;;;5037469;28;20068;-73
2022/10/16 00:29:05;;;;;;;26.33;4.07;;;12.00;99.90;;;;;;5036251;28;20383;-73
2022/10/16 00:31:33;;;;;;;26.77;3.38;;;12.20;99.90;;;;;;5037303;28;20057;-74
2022/10/16 00:34:01;;;;;;;28.23;3.63;;;12.10;99.90;;;;;;5037228;28;20046;-73
2022/10/16 00:36:28;;;;;;;25.70;3.30;;;12.10;99.90;;;;;;5035942;28;20053;-74
2022/10/16 00:38:59;;;;;;;24.17;3.83;;;12.10;99.90;;;;;;5037242;28;20056;-73
2022/10/16 00:41:32;;;;;;;27.42;3.33;;;10.90;99.90;;;;;;5018943;28;20038;-73
2022/10/16 00:44:03;;;;;;;24.05;3.67;;;11.90;99.90;;;;;;5036940;28;20046;-73
2022/10/16 00:46:42;;;;;;;29.85;3.67;;;11.80;99.90;;;;;;5037701;28;20042;-73
2022/10/16 00:49:16;;;;;;;24.95;3.83;;;11.90;99.90;;;;;;5035886;28;20045;-73
2022/10/16 00:51:50;;;;;;;29.67;3.55;;;11.70;99.90;;;;;;5036786;28;20057;-73
2022/10/16 00:54:21;;;;;;;30.38;3.42;;;11.70;99.90;;;;;;5037383;28;20041;-73
2022/10/16 00:56:49;;;;;;;23.90;3.42;;;11.60;99.90;;;;;;5018132;28;20054;-73
2022/10/16 00:59:27;;;;;;;20.23;2.95;;;11.60;99.90;;;;;;5019300;28;20064;-73
2022/10/16 01:01:56;;;;;;;27.52;3.42;;;11.60;99.90;;;;;;5035641;28;20479;-73
2022/10/16 01:04:26;;;;;;;22.48;3.30;;;11.50;99.90;;;;;;5036789;28;20041;-73
2022/10/16 01:07:15;;;;;;;21.48;3.13;;;11.40;99.90;;;;;;5019678;28;20473;-73
2022/10/16 01:10:03;;;;;;;19.23;3.10;;;11.40;99.90;;;;;;5018409;28;20045;-73
2022/10/16 01:12:42;;;;;;;25.10;3.22;;;11.30;99.90;;;;;;5036712;28;20488;-73
2022/10/16 01:15:33;;;;;;;29.02;3.70;;;11.20;99.90;;;;;;5035485;28;20357;-73
2022/10/16 01:18:30;;;;;;;23.33;3.57;;;11.10;99.90;;;;;;5036640;28;20052;-74
2022/10/16 01:21:03;;;;;;;30.92;3.45;;;11.10;99.90;;;;;;5035044;28;20286;-73
2022/10/16 01:23:51;;;;;;;34.35;3.85;;;11.30;99.90;;;;;;5035470;28;20041;-73
2022/10/16 01:26:32;;;;;;;;;;;10.90;99.90;;;;;;5019162;28;20384;-74
2022/10/16 01:29:26;;;;;;;32.17;3.88;;;10.80;99.90;;;;;;5035145;28;19924;-73
2022/10/16 01:32:01;;;;;;;32.20;4.28;;;10.80;99.90;;;;;;5018911;28;20049;-73
2022/10/16 01:34:35;;;;;;;39.90;4.55;;;10.90;99.90;;;;;;5035435;28;20045;-73
2022/10/16 01:37:07;;;;;;;36.50;4.20;;;10.90;99.90;;;;;;5018995;28;20056;-73
2022/10/16 01:39:38;;;;;;;39.03;4.28;;;11.30;99.90;;;;;;5035848;28;20048;-74
2022/10/16 01:42:13;;;;;;;39.47;4.35;;;11.10;99.90;;;;;;5035081;28;20061;-74
2022/10/16 01:44:42;;;;;;;47.88;5.00;;;10.80;99.90;;;;;;5035835;28;20049;-74
2022/10/16 01:47:12;;;;;;;38.40;4.63;;;10.80;99.90;;;;;;5018781;28;20060;-73
2022/10/16 01:49:42;;;;;;;38.33;4.53;;;10.80;99.90;;;;;;5035313;28;20064;-73
2022/10/16 01:52:16;;;;;;;40.40;5.15;;;10.80;99.90;;;;;;5035564;28;20483;-73
2022/10/16 01:54:46;;;;;;;35.05;4.30;;;10.80;99.90;;;;;;5017755;28;20049;-73
2022/10/16 01:57:15;;;;;;;37.50;4.63;;;11.00;99.90;;;;;;5035984;28;20056;-74
2022/10/16 01:59:50;;;;;;;44.80;4.82;;;11.70;99.90;;;;;;5035471;28;20041;-73
2022/10/16 02:02:20;;;;;;;31.30;4.45;;;11.10;99.90;;;;;;5034611;28;20472;-73
2022/10/16 02:05:00;;;;;;;34.40;4.18;;;11.20;99.90;;;;;;5035581;28;20049;-73
2022/10/16 02:07:27;;;;;;;37.60;4.70;;;11.50;99.90;;;;;;5018610;28;20053;-73
2022/10/16 02:09:55;;;;;;;35.35;4.10;;;11.50;99.90;;;;;;5034473;28;20049;-73
2022/10/16 02:12:29;;;;;;;45.97;5.07;;;11.60;99.90;;;;;;5035483;28;20049;-74
2022/10/16 02:14:57;;;;;;;35.67;4.63;;;11.70;99.90;;;;;;5034134;28;20053;-73
2022/10/16 02:17:27;;;;;;;35.55;4.65;;;11.80;99.90;;;;;;5018593;28;20456;-73
2022/10/16 02:19:56;;;;;;;34.42;4.28;;;11.90;99.90;;;;;;5017869;28;20049;-73
2022/10/16 02:22:33;;;;;;;37.08;4.60;;;12.20;99.90;;;;;;5034143;28;20048;-73
2022/10/16 02:25:07;;;;;;;32.88;4.50;;;12.00;99.90;;;;;;5035315;28;20041;-73
2022/10/16 02:28:08;;;;;;;31.02;4.10;;;12.10;99.90;;;;;;5035187;28;20041;-73
2022/10/16 02:31:08;;;;;;;26.35;3.53;;;12.10;99.90;;;;;;5017921;28;20050;-73
2022/10/16 02:33:38;;;;;;;21.27;3.55;;;12.10;99.90;;;;;;5020630;28;20057;-73
2022/10/16 02:36:07;;;;;;;25.13;3.42;;;12.00;99.90;;;;;;5033803;28;20049;-73
2022/10/16 02:38:36;;;;;;;30.20;3.67;;;12.40;99.90;;;;;;5035010;28;20487;-74
2022/10/16 02:41:06;;;;;;;23.13;3.60;;;11.90;99.90;;;;;;5035213;28;20053;-73
2022/10/16 02:43:34;;;;;;;30.17;4.00;;;11.80;99.90;;;;;;5035027;28;20041;-73
2022/10/16 02:46:01;;;;;;;22.90;3.58;;;11.70;99.90;;;;;;5018480;28;20038;-73
2022/10/16 02:48:29;;;;;;;30.25;3.70;;;11.60;99.90;;;;;;5016353;28;20053;-74
2022/10/16 02:50:57;;;;;;;22.40;3.75;;;11.60;99.90;;;;;;5034784;28;20041;-74
2022/10/16 02:53:24;;;;;;;22.63;4.47;;;11.50;99.90;;;;;;5034982;28;20384;-73
2022/10/16 02:55:52;;;;;;;31.27;4.07;;;11.50;99.90;;;;;;5034240;28;20053;-73
2022/10/16 02:58:19;;;;;;;29.53;4.83;;;11.40;99.90;;;;;;5035175;28;20056;-73
2022/10/16 03:00:47;;;;;;;30.00;4.20;;;12.10;99.90;;;;;;5017620;28;20589;-73
2022/10/16 03:03:14;;;;;;;34.00;4.28;;;11.30;99.90;;;;;;5033530;28;20049;-73
2022/10/16 03:05:45;;;;;;;29.88;3.78;;;11.30;99.90;;;;;;5017741;28;20042;-73
2022/10/16 03:08:13;;;;;;;31.55;3.97;;;11.60;99.90;;;;;;5033459;28;20387;-73
2022/10/16 03:10:41;;;;;;;;;;;11.50;99.90;;;;;;5034896;28;20057;-73
2022/10/16 03:13:08;;;;;;;28.17;3.70;;;11.20;99.90;;;;;;5034757;28;19921;-73
2022/10/16 03:15:35;;;;;;;26.87;3.63;;;11.10;99.90;;;;;;5033170;28;20729;-73
2022/10/16 03:18:03;;;;;;;29.00;3.85;;;11.10;99.90;;;;;;5034391;28;20613;-74
2022/10/16 03:20:30;;;;;;;29.58;3.50;;;11.00;99.90;;;;;;5034507;28;20052;-73
2022/10/16 03:22:58;;;;;;;27.27;3.60;;;11.10;99.90;;;;;;5016501;28;20461;-73
2022/10/16 03:25:25;;;;;;;26.55;3.38;;;10.90;99.90;;;;;;5034491;28;20287;-73
2022/10/16 03:27:53;;;;;;;25.95;3.35;;;10.90;99.90;;;;;;5016226;28;20068;-73
2022/10/16 03:30:21;;;;;;;30.85;3.97;;;11.20;99.90;;;;;;5034777;28;20057;-73
2022/10/16 03:32:48;;;;;;;18.48;3.13;;;10.80;99.90;;;;;;5034360;28;20049;-74
2022/10/16 03:35:16;;;;;;;25.80;2.95;;;11.10;99.90;;;;;;5000262;28;20068;-73
2022/10/16 03:37:43;;;;;;;24.77;3.35;;;10.80;99.90;;;;;;5034376;28;20060;-74
2022/10/16 03:40:11;;;;;;;23.30;2.97;;;10.80;99.90;;;;;;5034400;28;20049;-73
2022/10/16 03:42:39;;;;;;;21.90;3.20;;;11.80;99.90;;;;;;5016081;28;20486;-73
2022/10/16 03:45:07;;;;;;;23.10;2.90;;;10.80;99.90;;;;;;5038038;28;20037;-73
2022/10/16 03:47:34;;;;;;;25.88;3.42;;;10.80;99.90;;;;;;5038250;28;20052;-74
2022/10/16 03:50:03;;;;;;;20.25;3.45;;;11.30;99.90;;;;;;5037046;28;20495;-73
2022/10/16 03:52:31;;;;;;;20.20;3.30;;;10.80;99.90;;;;;;5038138;28;20046;-73
2022/10/16 03:54:59;;;;;;;25.45;3.30;;;10.70;99.90;;;;;;5019636;28;20045;-73
2022/10/16 03:57:27;;;;;;;26.20;3.22;;;10.70;99.90;;;;;;5020711;28;20053;-73
2022/10/16 03:59:55;;;;;;;23.10;2.97;;;10.70;99.90;;;;;;5020471;28;20372;-73
2022/10/16 04:02:22;;;;;;;27.33;3.15;;;11.30;99.90;;;;;;5020094;28;20052;-73
2022/10/16 04:04:51;;;;;;;;;;;10.70;99.90;;;;;;5021311;28;20496;-74
2022/10/16 04:07:18;;;;;;;27.35;3.20;;;10.70;99.90;;;;;;5020432;28;19928;-73
2022/10/16 04:09:46;;;;;;;27.63;3.25;;;10.80;99.90;;;;;;5036556;28;20468;-73
2022/10/16 04:12:13;;;;;;;30.73;3.17;;;10.70;99.90;;;;;;5037562;28;20045;-73
2022/10/16 04:14:41;;;;;;;33.38;3.83;;;10.60;99.90;;;;;;5029736;28;20139;-73
2022/10/16 04:17:09;;;;;;;31.30;3.15;;;10.50;99.90;;;;;;5057373;28;20476;-73
2022/10/16 04:19:36;;;;;;;23.88;3.38;;;10.50;99.90;;;;;;5057332;28;20380;-73
2022/10/16 04:22:04;;;;;;;25.02;3.03;;;10.50;99.90;;;;;;5039023;28;20045;-73
2022/10/16 04:24:31;;;;;;;28.55;3.30;;;11.20;99.90;;;;;;5057193;28;20064;-73
2022/10/16 04:26:59;;;;;;;35.17;3.40;;;10.50;99.90;;;;;;5057777;28;20045;-72
2022/10/16 04:29:26;;;;;;;34.03;3.70;;;10.50;99.90;;;;;;5038716;28;20530;-73
2022/10/16 04:31:54;;;;;;;26.42;3.42;;;10.50;99.90;;;;;;5057341;28;20052;-73
2022/10/16 04:34:22;;;;;;;25.92;3.65;;;10.50;99.90;;;;;;5057097;28;20049;-73
2022/10/16 04:36:49;;;;;;;29.20;3.92;;;10.50;99.90;;;;;;5055868;28;20045;-73
2022/10/16 04:39:17;;;;;;;26.67;3.42;;;11.30;99.90;;;;;;5057112;28;20045;-74
2022/10/16 04:41:44;;;;;;;24.48;3.33;;;10.50;99.90;;;;;;5055294;28;20044;-73
2022/10/16 04:44:12;;;;;;;31.35;3.75;;;10.40;99.90;;;;;;5056104;28;20116;-74
2022/10/16 04:46:39;;;;;;;24.50;3.38;;;10.30;99.90;;;;;;5057001;28;20372;-73
2022/10/16 04:49:07;;;;;;;35.00;3.72;;;10.80;99.90;;;;;;5054880;28;20459;-74
2022/10/16 04:51:34;;;;;;;26.10;3.03;;;10.30;99.90;;;;;;5056005;28;20064;-74
2022/10/16 04:54:02;;;;;;;28.33;3.50;;;10.40;99.90;;;;;;5056089;28;20286;-73
2022/10/16 04:56:29;;;;;;;28.90;3.20;;;10.20;99.90;;;;;;5055677;28;20049;-73
2022/10/16 04:58:57;;;;;;;28.45;3.47;;;10.70;99.90;;;;;;5057036;28;20045;-74
2022/10/16 05:01:24;;;;;;;32.25;4.03;;;10.20;99.90;;;;;;5054733;28;20041;-73
2022/10/16 05:03:52;;;;;;;32.72;3.55;;;10.20;99.90;;;;;;5056470;28;20360;-73
2022/10/16 05:06:19;;;;;;;28.15;3.28;;;10.20;99.90;;;;;;5057143;28;20053;-73
2022/10/16 05:08:47;;;;;;;39.28;3.58;;;10.80;99.90;;;;;;5055562;28;20360;-73
2022/10/16 05:11:14;;;;;;;32.08;3.22;;;10.20;99.90;;;;;;5056500;28;20368;-73
2022/10/16 05:13:42;;;;;;;29.55;3.60;;;10.20;99.90;;;;;;5056416;28;20395;-74
2022/10/16 05:16:09;;;;;;;24.10;3.03;;;11.90;99.90;;;;;;5036149;28;20060;-73
2022/10/16 05:18:37;;;;;;;30.38;3.78;;;10.20;99.90;;;;;;5036837;28;20049;-73
2022/10/16 05:21:05;;;;;;;27.67;3.10;;;10.40;99.90;;;;;;5019687;28;20060;-73
2022/10/16 05:23:34;;;;;;;27.80;3.20;;;10.20;99.90;;;;;;5019244;28;20372;-73
2022/10/16 05:26:01;;;;;;;26.08;3.20;;;10.20;99.90;;;;;;5036489;28;20057;-73
2022/10/16 05:28:30;;;;;;;28.30;3.78;;;11.10;99.90;;;;;;5018050;28;20464;-74
2022/10/16 05:30:59;;;;;;;29.80;3.53;;;10.20;99.90;;;;;;5035951;28;20049;-74
2022/10/16 05:33:26;;;;;;;23.75;3.22;;;10.20;99.90;;;;;;5036426;28;20064;-73
2022/10/16 05:35:54;;;;;;;24.25;3.08;;;10.70;99.90;;;;;;5035152;28;20053;-73
2022/10/16 05:38:22;;;;;;;26.75;3.63;;;10.20;99.90;;;;;;5036072;28;20049;-73
2022/10/16 05:40:52;;;;;;;36.88;4.00;;;10.20;99.90;;;;;;5018445;28;20049;-73
2022/10/16 05:43:20;;;;;;;36.70;3.40;;;11.40;99.90;;;;;;5034708;28;20056;-73
2022/10/16 05:45:58;;;;;;;26.98;2.88;;;10.10;99.90;;;;;;5018742;28;20372;-73
2022/10/16 05:48:28;;;;;;;33.65;4.05;;;10.10;99.90;;;;;;5034863;28;20373;-73
2022/10/16 05:51:15;;;;;;;37.35;3.80;;;10.10;99.90;;;;;;5018618;28;20053;-73
2022/10/16 05:53:42;;;;;;;24.17;3.33;;;11.80;99.90;;;;;;5035655;28;20049;-73
2022/10/16 05:56:15;;;;;;;31.45;3.50;;;10.20;99.90;;;;;;5018139;28;20045;-73
2022/10/16 05:58:44;;;;;;;28.80;3.67;;;10.20;99.90;;;;;;5035947;28;20049;-74
2022/10/16 06:01:17;;;;;;;32.53;3.65;;;9.90;99.90;;;;;;5017324;28;20052;-74
2022/10/16 06:03:45;;;;;;;31.55;3.35;;;9.90;99.90;;;;;;5018536;28;20041;-74
2022/10/16 06:06:15;;;;;;;31.40;3.90;;;9.90;99.90;;;;;;5001671;28;20049;-74
2022/10/16 06:08:45;;;;;;;32.70;3.72;;;9.90;99.90;;;;;;5034191;28;20041;-74
2022/10/16 06:11:19;;;;;;;29.92;3.90;;;9.90;99.90;;;;;;5018472;28;20053;-73
2022/10/16 06:13:51;;;;;;;31.52;3.70;;;9.90;99.90;;;;;;5035505;28;20041;-73
2022/10/16 06:16:19;;;;;;;26.45;3.38;;;9.90;99.90;;;;;;5034244;28;20056;-73
2022/10/16 06:18:47;;;;;;;;;;;9.80;99.90;;;;;;5035609;28;20049;-73
2022/10/16 06:21:19;;;;;;;35.40;3.55;;;9.80;99.90;;;;;;5034470;28;19925;-74
2022/10/16 06:23:47;;;;;;;25.75;3.38;;;9.80;99.90;;;;;;5035470;28;20050;-73
2022/10/16 06:26:17;;;;;;;26.55;3.33;;;9.70;99.90;;;;;;5034627;28;20160;-74
2022/10/16 06:28:44;;;;;;;29.10;3.67;;;9.70;99.90;;;;;;5034001;28;20495;-74
2022/10/16 06:31:13;;;;;;;33.65;3.97;;;10.20;99.90;;;;;;5017675;28;20357;-74
2022/10/16 06:33:41;;;;;;;33.75;4.00;;;9.70;99.90;;;;;;5034099;28;20053;-73
2022/10/16 06:36:18;;;;;;;34.40;3.80;;;9.70;99.90;;;;;;5033976;28;20056;-74
2022/10/16 06:38:46;;;;;;;33.40;3.67;;;9.70;99.90;;;;;;5018035;28;20060;-72
2022/10/16 06:41:19;;;;;;;38.83;3.97;;;9.60;99.90;;;;;;5033877;28;20049;-73
2022/10/16 06:43:47;;;;;;;31.48;3.67;;;9.90;99.90;;;;;;5034116;28;20054;-74
2022/10/16 06:46:19;;;;;;;31.38;4.07;;;9.90;99.90;;;;;;5018136;28;20045;-73
2022/10/16 06:48:47;;;;;;;32.42;4.32;;;11.50;99.90;;;;;;5034064;28;20042;-74
2022/10/16 06:51:16;;;;;;;32.63;3.42;;;10.30;99.90;;;;;;5035185;28;20052;-74
2022/10/16 06:53:49;;;;;;;29.05;3.50;;;9.50;99.90;;;;;;5035161;28;20057;-74
2022/10/16 06:56:33;;;;;;;25.55;3.30;;;10.80;99.90;;;;;;5033741;28;20049;-74
2022/10/16 06:59:01;;;;;;;30.20;3.75;;;9.50;99.90;;;;;;5034887;28;20048;-73
2022/10/16 07:01:29;;;;;;;33.75;3.80;;;9.60;99.90;;;;;;5033432;28;20052;-74
2022/10/16 07:03:59;;;;;;;33.28;3.38;;;9.60;99.90;;;;;;5034544;28;20045;-74
2022/10/16 07:06:30;;;;;;;30.45;3.90;;;10.20;99.90;;;;;;5034429;28;20042;-74
2022/10/16 07:08:57;;;;;;;29.25;3.83;;;9.60;99.90;;;;;;5032547;28;20460;-75
2022/10/16 07:11:25;;;;;;;37.33;3.70;;;10.50;99.90;;;;;;5033153;28;20053;-74
2022/10/16 07:13:52;;;;;;;36.72;3.85;;;9.60;99.90;;;;;;5034669;28;20054;-73
2022/10/16 07:16:25;;;;;;;28.20;3.72;;;9.60;99.90;;;;;;5016204;28;20384;-74
2022/10/16 07:18:58;;;;;;;39.60;3.75;;;9.60;99.90;;;;;;5037875;28;20365;-73
2022/10/16 07:21:28;;;;;;;36.95;3.83;;;10.80;99.90;;;;;;5037536;28;20186;-74
2022/10/16 07:24:00;;;;;;;30.80;3.42;;;9.60;99.90;;;;;;5038652;28;20045;-74
2022/10/16 07:26:30;;;;;;;40.53;4.10;;;9.60;99.90;;;;;;5037693;28;20045;-74
2022/10/16 07:28:58;;;;;;;32.85;3.65;;;9.60;99.90;;;;;;5037556;28;20075;-73
2022/10/16 07:31:27;;;;;;;37.05;3.85;;;10.90;99.90;;;;;;5038538;28;20145;-74
2022/10/16 07:33:59;;;;;;;27.67;3.90;;;9.60;99.90;;;;;;5021023;28;20064;-73
2022/10/16 07:36:27;;;;;;;31.85;4.13;;;9.60;99.90;;;;;;5037156;28;20045;-73
2022/10/16 07:38:55;;;;;;;31.73;3.78;;;9.80;99.90;;;;;;5038293;28;20037;-73
2022/10/16 07:41:27;;;;;;;32.75;3.70;;;9.70;99.90;;;;;;5037291;28;20644;-74
2022/10/16 07:43:59;;;;;;;33.67;4.15;;;9.70;99.90;;;;;;5038059;28;20052;-73
2022/10/16 07:46:30;;;;;;;27.42;3.33;;;10.30;99.90;;;;;;5037957;28;20045;-73
2022/10/16 07:48:57;;;;;;;37.10;4.22;;;9.70;99.90;;;;;;5036451;28;20056;-73
2022/10/16 07:51:26;;;;;;;27.77;3.80;;;9.70;99.90;;;;;;5037705;28;20053;-72
2022/10/16 07:53:53;;;;;;;36.97;4.15;;;9.70;99.90;;;;;;5038082;28;20045;-73
2022/10/16 07:56:21;;;;;;;37.42;3.92;;;9.80;99.90;;;;;;5019285;28;20058;-72
2022/10/16 07:58:50;;;;;;;38.95;4.22;;;9.80;99.90;;;;;;5020302;28;20046;-73
2022/10/16 08:01:18;;;;;;;32.72;3.70;;;9.80;99.90;;;;;;5036353;28;20049;-73
2022/10/16 08:03:48;;;;;;;30.77;3.88;;;9.80;99.90;;;;;;5037337;28;20041;-73
2022/10/16 08:06:16;;;;;;;31.10;3.60;;;9.80;99.90;;;;;;5037714;28;20061;-73
2022/10/16 08:08:48;;;;;;;27.08;3.25;;;9.90;99.90;;;;;;5022720;28;20042;-72
2022/10/16 08:11:16;;;;;;;34.45;4.25;;;10.00;99.90;;;;;;5017511;28;20072;-73
2022/10/16 08:13:44;;;;;;;32.58;4.00;;;11.20;99.90;;;;;;5017495;28;20493;-73
2022/10/16 08:16:11;;;;;;;33.13;3.97;;;10.30;99.90;;;;;;5034181;28;20396;-73
2022/10/16 08:18:40;;;;;;;27.65;4.07;;;10.40;99.90;;;;;;5037076;28;20041;-72
2022/10/16 08:21:16;;;;;;;34.70;4.00;;;10.70;99.90;;;;;;5036192;28;20041;-72
2022/10/16 08:23:53;;;;;;;26.25;3.97;;;11.00;99.90;;;;;;5037044;28;20056;-72
2022/10/16 08:26:26;;;;;;;22.88;3.63;;;11.20;99.90;;;;;;5037060;28;20042;-73
2022/10/16 08:28:54;;;;;;;23.65;3.17;;;11.50;99.90;;;;;;5034784;28;20053;-74
2022/10/16 08:31:22;;;;;;;;;;;12.70;99.90;;;;;;5037098;28;20045;-73
2022/10/16 08:33:49;;;;;;;25.02;3.45;;;12.10;99.90;;;;;;5036028;28;20365;-73
2022/10/16 08:36:17;;;;;;;30.00;3.58;;;12.30;99.90;;;;;;5035793;28;20046;-73
2022/10/16 08:38:47;;;;;;;22.17;3.95;;;12.70;99.90;;;;;;5037046;28;20052;-72
2022/10/16 08:41:37;;;;;;;25.58;3.30;;;12.90;99.90;;;;;;5036310;28;20050;-73
2022/10/16 08:44:20;;;;;;;26.27;3.55;;;12.80;99.90;;;;;;5036277;28;20464;-73
2022/10/16 08:47:00;;;;;;;21.25;3.05;;;12.80;99.90;;;;;;5036278;28;20042;-73
2022/10/16 08:49:29;;;;;;;25.90;3.35;;;12.80;99.90;;;;;;5034950;28;20064;-73
2022/10/16 08:51:57;;;;;;;21.95;3.22;;;12.70;99.90;;;;;;5052676;28;20056;-73
2022/10/16 08:54:34;;;;;;;26.80;3.58;;;12.70;99.90;;;;;;5036898;28;20052;-73
2022/10/16 08:57:13;;;;;;;20.58;3.13;;;12.70;99.90;;;;;;5037023;28;20392;-73
2022/10/16 08:59:46;;;;;;;25.80;3.38;;;12.50;99.90;;;;;;5039553;28;20353;-72
2022/10/16 09:02:25;;;;;;;24.13;3.47;;;13.10;99.90;;;;;;5035524;28;20050;-73
2022/10/16 09:05:08;;;;;;;24.75;3.55;;;12.50;99.90;;;;;;5036151;28;20045;-73
2022/10/16 09:07:57;;;;;;;23.75;3.30;;;12.40;99.90;;;;;;5036416;28;20044;-71
2022/10/16 09:11:00;;;;;;;23.65;3.92;;;12.40;99.90;;;;;;5036470;28;20456;-72
2022/10/16 09:13:49;;;;;;;21.00;3.30;;;12.40;99.90;;;;;;5036171;28;20045;-72
2022/10/16 09:16:41;;;;;;;22.75;3.13;;;12.30;99.90;;;;;;5055286;28;20056;-73
2022/10/16 09:19:21;;;;;;;23.40;3.45;;;12.30;99.90;;;;;;5056031;28;20049;-72
2022/10/16 09:21:49;;;;;;;25.45;3.35;;;12.90;99.90;;;;;;5055182;28;20037;-72
2022/10/16 09:24:19;;;;;;;29.92;3.92;;;12.80;99.90;;;;;;5056417;28;20053;-72
2022/10/16 09:26:48;;;;;;;20.63;3.03;;;12.40;99.90;;;;;;5056137;28;20049;-72
2022/10/16 09:29:21;;;;;;;27.77;3.28;;;12.40;99.90;;;;;;5037307;28;20041;-72
2022/10/16 09:31:49;;;;;;;25.35;3.15;;;12.30;99.90;;;;;;5055477;28;20052;-72
2022/10/16 09:34:19;;;;;;;18.75;3.20;;;12.50;99.90;;;;;;5056127;28;20062;-72
2022/10/16 09:36:47;;;;;;;23.60;3.70;;;12.70;99.90;;;;;;5054775;28;20395;-72
2022/10/16 09:39:14;;;;;;;25.67;3.33;;;12.90;99.90;;;;;;5056258;28;20395;-73
2022/10/16 09:41:44;;;;;;;23.60;3.17;;;12.40;99.90;;;;;;5053748;28;20044;-73
2022/10/16 09:44:23;;;;;;;21.25;2.78;;;12.40;99.90;;;;;;5056203;28;20371;-73
2022/10/16 09:47:05;;;;;;;25.02;3.70;;;12.40;99.90;;;;;;5055707;28;20395;-74
2022/10/16 09:49:33;;;;;;;22.48;2.75;;;12.40;99.90;;;;;;5054804;28;20436;-72
2022/10/16 09:52:12;;;;;;;20.90;3.63;;;12.40;99.90;;;;;;5055336;28;20041;-73
2022/10/16 09:54:53;;;;;;;22.02;3.50;;;13.30;99.90;;;;;;5054441;28;20384;-72
2022/10/16 09:57:23;;;;;;;24.88;3.45;;;12.70;99.90;;;;;;5055851;28;20103;-73
2022/10/16 09:59:58;;;;;;;17.30;3.53;;;12.60;99.90;;;;;;5055661;28;20060;-72
2022/10/16 10:02:35;;;;;;;20.48;3.25;;;12.60;99.90;;;;;;5054562;28;20364;-73
2022/10/16 10:05:05;;;;;;;20.92;2.97;;;12.70;99.90;;;;;;5055559;28;20506;-72
2022/10/16 10:07:39;;;;;;;20.75;2.97;;;12.80;99.90;;;;;;5055533;28;20052;-72
2022/10/16 10:10:21;;;;;;;17.15;3.08;;;12.90;99.90;;;;;;5050993;28;20033;-71
2022/10/16 10:12:49;;;;;;;21.52;3.08;;;13.00;99.90;;;;;;5055123;28;20044;-75
2022/10/16 10:15:21;;;;;;;15.25;2.42;;;13.20;99.90;;;;;;5054507;28;20056;-74
2022/10/16 10:17:57;;;;;;;21.40;3.15;;;13.50;99.90;;;;;;5018437;28;20388;-73
2022/10/16 10:20:27;;;;;;;22.13;3.08;;;13.70;99.90;;;;;;5035318;28;20064;-74
2022/10/16 10:22:55;;;;;;;14.65;2.63;;;13.90;99.90;;;;;;5034021;28;20041;-72
2022/10/16 10:25:32;;;;;;;;;;;14.10;99.90;;;;;;5036003;28;20349;-73
2022/10/16 10:28:10;;;;;;;15.60;2.75;;;14.30;99.90;;;;;;5031137;28;19922;-73
2022/10/16 10:31:24;;;;;;;19.90;3.15;;;14.40;99.90;;;;;;4997961;28;20038;-76
2022/10/16 10:34:25;;;;;;;16.63;2.70;;;14.60;99.90;;;;;;4998251;28;20054;-74
2022/10/16 10:37:04;;;;;;;16.65;3.00;;;14.90;99.90;;;;;;4997830;28;20046;-73
2022/10/16 10:39:38;;;;;;;21.92;3.08;;;15.00;99.90;;;;;;4997999;28;20038;-73
2022/10/16 10:42:12;;;;;;;11.80;2.58;;;15.20;99.90;;;;;;5014282;28;20052;-74
2022/10/16 10:45:06;;;;;;;18.02;3.30;;;15.30;99.90;;;;;;4998002;28;20053;-73
2022/10/16 10:47:56;;;;;;;18.83;3.25;;;15.40;99.90;;;;;;4998082;28;20049;-73
2022/10/16 10:50:45;;;;;;;14.25;2.88;;;15.60;99.90;;;;;;5015428;28;20056;-76
2022/10/16 10:53:41;;;;;;;15.20;2.85;;;15.70;99.90;;;;;;4997896;28;20045;-72
2022/10/16 10:56:44;;;;;;;20.77;3.05;;;15.80;99.90;;;;;;5013779;28;20046;-75
2022/10/16 10:59:52;;;;;;;12.02;2.45;;;16.00;99.90;;;;;;5015283;28;20053;-72
2022/10/16 11:02:44;;;;;;;16.73;2.80;;;16.00;99.90;;;;;;4986571;28;20064;-73
2022/10/16 11:05:40;;;;;;;18.15;2.97;;;16.10;99.90;;;;;;5025914;28;20061;-72
2022/10/16 11:08:10;;;;;;;16.60;3.03;;;16.20;99.90;;;;;;5013528;28;20305;-74
2022/10/16 11:10:57;;;;;;;22.77;3.40;;;16.30;99.80;;;;;;4997405;28;20061;-74
2022/10/16 11:13:56;;;;;;;16.63;3.00;;;16.40;99.90;;;;;;5015321;28;20053;-74
2022/10/16 11:16:32;;;;;;;19.73;4.55;;;16.40;99.70;;;;;;5014062;28;20046;-74
2022/10/16 11:19:23;;;;;;;15.10;3.20;;;16.40;99.30;;;;;;5014660;28;20054;-75
2022/10/16 11:22:20;;;;;;;15.60;3.33;;;16.60;99.30;;;;;;5013894;28;20042;-73
2022/10/16 11:25:09;;;;;;;19.70;2.78;;;16.70;99.10;;;;;;5013786;28;20456;-75
2022/10/16 11:28:00;;;;;;;20.65;3.33;;;16.80;98.90;;;;;;5020019;28;20053;-74
2022/10/16 11:30:31;;;;;;;20.95;3.50;;;16.90;99.00;;;;;;5014734;28;20061;-75
2022/10/16 11:33:07;;;;;;;17.48;3.20;;;17.00;98.90;;;;;;5014073;28;20054;-75
2022/10/16 11:36:01;;;;;;;20.30;3.30;;;17.00;98.70;;;;;;5013424;28;20053;-75
2022/10/16 11:38:54;;;;;;;20.77;3.28;;;17.10;98.50;;;;;;5015005;28;20042;-75
2022/10/16 11:41:38;;;;;;;20.75;2.88;;;17.10;98.50;;;;;;5032031;28;20048;-75
2022/10/16 11:44:41;;;;;;;21.75;3.50;;;17.10;98.40;;;;;;5033168;28;20144;-75
2022/10/16 11:47:33;;;;;;;20.75;3.17;;;17.20;98.40;;;;;;5014177;28;20053;-75
2022/10/16 11:50:28;;;;;;;14.98;3.13;;;17.30;98.60;;;;;;5013902;28;20054;-75
2022/10/16 11:53:07;;;;;;;18.48;3.38;;;17.40;98.40;;;;;;5014844;28;20054;-76
2022/10/16 11:55:38;;;;;;;16.52;2.88;;;17.50;98.30;;;;;;5013541;28;20050;-73
2022/10/16 11:58:43;;;;;;;22.52;3.38;;;17.50;98.20;;;;;;5013693;28;20364;-76
2022/10/16 12:01:32;;;;;;;23.83;3.60;;;17.60;97.90;;;;;;5013739;28;20053;-75
2022/10/16 12:04:15;;;;;;;21.92;3.55;;;17.60;98.00;;;;;;5015457;28;20053;-76
2022/10/16 12:07:11;;;;;;;22.45;4.00;;;17.80;98.00;;;;;;5017499;28;20045;-77
2022/10/16 12:09:41;;;;;;;25.50;4.38;;;17.90;97.90;;;;;;5017006;28;20357;-77
2022/10/16 12:12:38;;;;;;;23.92;3.70;;;18.00;97.70;;;;;;5017207;28;20041;-77
2022/10/16 12:15:15;;;;;;;22.73;3.90;;;18.00;97.50;;;;;;5016488;28;20069;-76
2022/10/16 12:17:56;;;;;;;15.55;3.03;;;18.00;97.00;;;;;;5001111;28;20389;-75
2022/10/16 12:20:25;;;;;;;19.73;3.50;;;17.90;97.10;;;;;;5000663;28;20054;-75
2022/10/16 12:22:56;;;;;;;18.20;3.70;;;17.80;97.20;;;;;;5016153;28;20049;-76
2022/10/16 12:25:33;;;;;;;22.98;3.67;;;17.70;97.20;;;;;;5016198;28;20046;-76
2022/10/16 12:28:05;;;;;;;26.38;3.47;;;17.60;97.50;;;;;;5016946;28;20468;-75
2022/10/16 12:30:36;;;;;;;25.67;3.50;;;17.50;97.50;;;;;;5000793;28;20048;-74
2022/10/16 12:33:06;;;;;;;19.25;3.70;;;17.40;97.80;;;;;;5020297;28;20046;-76
2022/10/16 12:35:44;;;;;;;24.05;4.03;;;17.30;97.60;;;;;;5016525;28;20056;-75
2022/10/16 12:38:49;;;;;;;25.02;4.03;;;17.20;97.90;;;;;;5017837;28;20054;-75
2022/10/16 12:41:27;;;;;;;;;;;17.10;98.10;;;;;;5000184;28;20064;-74
2022/10/16 12:43:56;;;;;;;22.17;4.22;;;17.00;98.10;;;;;;5017414;28;19928;-74
2022/10/16 12:46:39;;;;;;;24.75;3.90;;;16.90;98.30;;;;;;5017119;28;20046;-74
2022/10/16 12:49:13;;;;;;;22.58;3.63;;;16.90;98.50;;;;;;5016465;28;20042;-74
2022/10/16 12:51:42;;;;;;;25.38;4.05;;;16.80;98.50;;;;;;5017343;28;20043;-76
2022/10/16 12:54:29;;;;;;;26.83;3.88;;;16.80;99.00;;;;;;5016320;28;20052;-77
2022/10/16 12:57:17;;;;;;;28.08;4.00;;;16.80;99.10;;;;;;5017461;28;20050;-77
2022/10/16 13:00:07;;;;;;;27.90;4.13;;;16.80;99.20;;;;;;5017130;28;20472;-73
2022/10/16 13:02:50;;;;;;;23.13;4.20;;;16.90;99.40;;;;;;5015880;28;20049;-74
2022/10/16 13:05:44;;;;;;;21.02;3.67;;;16.90;99.40;;;;;;5016796;28;20056;-73
2022/10/16 13:08:32;;;;;;;27.02;4.43;;;17.00;99.50;;;;;;5015682;28;20041;-72
2022/10/16 13:11:21;;;;;;;22.10;3.95;;;17.00;99.70;;;;;;4999865;28;20465;-72
2022/10/16 13:14:08;;;;;;;19.95;3.67;;;17.10;99.60;;;;;;4999944;28;20049;-73
2022/10/16 13:16:50;;;;;;;26.25;4.18;;;17.20;99.40;;;;;;5035407;28;20049;-74